Time;durP1;ratioP1;P1;durP2;ratioP2;P2;SDS_P1;SDS_P2;PMS_P1;PMS_P2;Temp;Humidity;BMP_temperature;BMP_pressure;BME280_temperature;BME280_humidity;BME280_pressure;Samples;Min_cycle;Max_cycle;Signal;HPM_P1;HPM_P2
2023/02/05 00:01:25;;;;;;;27.38;18.90;;;;;;;;;;5028965;28;20033;-79
2023/02/05 00:03:51;;;;;;;39.60;25.80;;;;;;;;;;5029249;28;20116;-80
2023/02/05 00:06:17;;;;;;;37.28;26.58;;;;;;;;;;5028160;28;20033;-79
2023/02/05 00:08:43;;;;;;;37.38;25.58;;;;;;;;;;5030139;28;20500;-79
2023/02/05 00:11:09;;;;;;;28.83;19.83;;;;;;;;;;5028678;28;20033;-80
2023/02/05 00:13:35;;;;;;;33.92;23.70;;;;;;;;;;5029650;28;20068;-78
2023/02/05 00:16:28;;;;;;;26.35;20.65;;;;;;;;;;5026776;28;20563;-78
2023/02/05 00:18:54;;;;;;;24.85;19.45;;;;;;;;;;5026300;28;20599;-78
2023/02/05 00:21:20;;;;;;;29.80;22.50;;;;;;;;;;5025832;28;20152;-78
2023/02/05 00:23:46;;;;;;;28.60;22.90;;;;;;;;;;5026079;28;20053;-78
2023/02/05 00:26:13;;;;;;;29.50;19.00;;;;;;;;;;5026784;28;20424;-78
2023/02/05 00:28:40;;;;;;;26.15;21.83;;;;;;;;;;5025877;28;20047;-78
2023/02/05 00:31:07;;;;;;;21.92;17.27;;;;;;;;;;5031291;28;20032;-79
2023/02/05 00:33:33;;;;;;;29.38;22.38;;;;;;;;;;5036165;28;20045;-78
2023/02/05 00:35:59;;;;;;;27.90;21.00;;;;;;;;;;5039191;28;20035;-78
2023/02/05 00:38:25;;;;;;;26.83;21.40;;;;;;;;;;5036151;28;20049;-77
2023/02/05 00:40:51;;;;;;;23.50;16.20;;;;;;;;;;5039000;28;20025;-79
2023/02/05 00:43:17;;;;;;;12.57;10.57;;;;;;;;;;5037328;28;20120;-79
2023/02/05 00:45:43;;;;;;;16.63;14.77;;;;;;;;;;5037701;28;20120;-78
2023/02/05 00:48:09;;;;;;;17.92;15.07;;;;;;;;;;5037651;28;20037;-81
2023/02/05 00:50:35;;;;;;;20.95;16.90;;;;;;;;;;5038465;28;20047;-79
2023/02/05 00:53:03;;;;;;;18.40;14.10;;;;;;;;;;5044702;28;20507;-79
2023/02/05 00:55:29;;;;;;;18.15;14.82;;;;;;;;;;5046913;28;20419;-79
2023/02/05 00:57:55;;;;;;;17.38;13.50;;;;;;;;;;5046933;28;20044;-79
2023/02/05 01:00:22;;;;;;;23.98;16.42;;;;;;;;;;5047591;28;20041;-79
2023/02/05 01:02:48;;;;;;;26.77;21.88;;;;;;;;;;5049203;28;20570;-79
2023/02/05 01:05:14;;;;;;;20.77;15.98;;;;;;;;;;5047497;28;20535;-79
2023/02/05 01:07:41;;;;;;;15.68;12.93;;;;;;;;;;5048732;28;20540;-80
2023/02/05 01:10:07;;;;;;;22.75;16.65;;;;;;;;;;5047204;28;20041;-79
2023/02/05 01:12:33;;;;;;;25.98;19.60;;;;;;;;;;5048580;28;20492;-79
2023/02/05 01:14:59;;;;;;;20.15;15.63;;;;;;;;;;5051628;28;20036;-79
2023/02/05 01:17:26;;;;;;;23.80;16.65;;;;;;;;;;5050821;28;20882;-79
2023/02/05 01:19:52;;;;;;;16.33;13.52;;;;;;;;;;5052285;28;20526;-79
2023/02/05 01:22:18;;;;;;;18.38;15.00;;;;;;;;;;5033897;28;20040;-79
2023/02/05 01:24:44;;;;;;;23.92;20.95;;;;;;;;;;5050666;28;20111;-78
2023/02/05 01:27:10;;;;;;;23.88;18.88;;;;;;;;;;5050656;28;20576;-79
2023/02/05 01:29:36;;;;;;;15.48;12.75;;;;;;;;;;5052146;28;20047;-79
2023/02/05 01:32:02;;;;;;;19.45;16.80;;;;;;;;;;5034730;28;20029;-78
2023/02/05 01:34:28;;;;;;;19.85;15.93;;;;;;;;;;5052225;28;20033;-80
2023/02/05 01:36:54;;;;;;;17.55;15.65;;;;;;;;;;5053153;28;20029;-78
2023/02/05 01:39:21;;;;;;;18.25;13.23;;;;;;;;;;5050726;28;20045;-79
2023/02/05 01:41:47;;;;;;;21.33;16.25;;;;;;;;;;5034236;28;20116;-77
2023/02/05 01:44:17;;;;;;;14.23;12.45;;;;;;;;;;5050350;28;20041;-79
2023/02/05 01:46:43;;;;;;;19.23;17.05;;;;;;;;;;5050462;28;20392;-78
2023/02/05 01:49:11;;;;;;;22.20;17.05;;;;;;;;;;5051570;28;20036;-78
2023/02/05 01:51:37;;;;;;;13.88;12.43;;;;;;;;;;5051726;28;20082;-78
2023/02/05 01:54:04;;;;;;;14.38;12.20;;;;;;;;;;5033832;28;20558;-78
2023/02/05 01:56:35;;;;;;;12.52;10.95;;;;;;;;;;5051243;28;20071;-78
2023/02/05 01:59:01;;;;;;;;;;;;;;;;;;5034232;28;20592;-78
2023/02/05 02:01:28;;;;;;;14.20;10.40;;;;;;;;;;5051395;28;19928;-77
2023/02/05 02:03:54;;;;;;;14.30;11.85;;;;;;;;;;5052044;28;20045;-78
2023/02/05 02:06:20;;;;;;;16.48;14.77;;;;;;;;;;5050220;28;20120;-78
2023/02/05 02:08:46;;;;;;;11.65;9.75;;;;;;;;;;5050775;28;20490;-77
2023/02/05 02:11:12;;;;;;;12.10;10.25;;;;;;;;;;5051862;28;20037;-79
2023/02/05 02:13:39;;;;;;;15.27;10.93;;;;;;;;;;5051074;28;20451;-79
2023/02/05 02:16:05;;;;;;;11.77;10.57;;;;;;;;;;5052528;28;20033;-78
2023/02/05 02:18:31;;;;;;;14.65;10.18;;;;;;;;;;5051014;28;20453;-79
2023/02/05 02:20:58;;;;;;;14.05;10.88;;;;;;;;;;5052454;28;20055;-79
2023/02/05 02:23:32;;;;;;;12.70;11.20;;;;;;;;;;5054170;28;20044;-79
2023/02/05 02:25:58;;;;;;;15.82;12.80;;;;;;;;;;5051712;28;20075;-79
2023/02/05 02:28:24;;;;;;;9.35;8.40;;;;;;;;;;5052528;28;20033;-79
2023/02/05 02:30:56;;;;;;;13.60;11.82;;;;;;;;;;5052565;28;20396;-78
2023/02/05 02:33:38;;;;;;;12.13;10.45;;;;;;;;;;5050567;28;20032;-78
2023/02/05 02:36:04;;;;;;;9.80;8.48;;;;;;;;;;5017852;28;20036;-78
2023/02/05 02:38:31;;;;;;;13.07;11.32;;;;;;;;;;5050668;28;20516;-79
2023/02/05 02:41:01;;;;;;;14.65;12.57;;;;;;;;;;5050624;28;20387;-78
2023/02/05 02:43:38;;;;;;;14.02;12.63;;;;;;;;;;5050404;28;20120;-76
2023/02/05 02:46:06;;;;;;;12.95;11.00;;;;;;;;;;5057728;28;20041;-79
2023/02/05 02:48:32;;;;;;;12.98;11.25;;;;;;;;;;5052065;28;20021;-79
2023/02/05 02:50:58;;;;;;;14.88;11.90;;;;;;;;;;5066560;28;20044;-78
2023/02/05 02:53:25;;;;;;;14.93;13.32;;;;;;;;;;5028523;28;20470;-78
2023/02/05 02:55:51;;;;;;;14.52;11.18;;;;;;;;;;5070967;28;20052;-79
2023/02/05 02:58:27;;;;;;;18.00;12.55;;;;;;;;;;5055618;28;20013;-78
2023/02/05 03:00:54;;;;;;;13.52;10.77;;;;;;;;;;5055333;28;20068;-78
2023/02/05 03:03:20;;;;;;;14.70;12.02;;;;;;;;;;5051822;28;20531;-79
2023/02/05 03:05:47;;;;;;;13.50;11.00;;;;;;;;;;5051391;28;20060;-79
2023/02/05 03:08:23;;;;;;;18.00;13.48;;;;;;;;;;5036430;28;20072;-79
2023/02/05 03:11:00;;;;;;;16.70;11.93;;;;;;;;;;5041626;28;20037;-79
2023/02/05 03:13:28;;;;;;;14.25;11.80;;;;;;;;;;5033571;28;20068;-79
2023/02/05 03:15:58;;;;;;;17.30;14.98;;;;;;;;;;5031641;28;20049;-79
2023/02/05 03:18:24;;;;;;;10.32;8.98;;;;;;;;;;5030022;28;20057;-80
2023/02/05 03:20:51;;;;;;;11.77;9.02;;;;;;;;;;5031606;28;20443;-79
2023/02/05 03:23:17;;;;;;;14.00;10.75;;;;;;;;;;5013722;28;20052;-80
2023/02/05 03:25:43;;;;;;;19.67;16.38;;;;;;;;;;5032050;28;20053;-78
2023/02/05 03:28:10;;;;;;;12.98;10.95;;;;;;;;;;5030762;28;20134;-78
2023/02/05 03:30:57;;;;;;;13.73;10.38;;;;;;;;;;5013178;28;20033;-78
2023/02/05 03:33:23;;;;;;;15.15;10.82;;;;;;;;;;5029809;28;20124;-77
2023/02/05 03:36:00;;;;;;;11.43;10.02;;;;;;;;;;5030265;28;20496;-77
2023/02/05 03:38:29;;;;;;;18.38;11.90;;;;;;;;;;5028904;28;20037;-79
2023/02/05 03:40:56;;;;;;;16.08;11.55;;;;;;;;;;5013293;28;20136;-78
2023/02/05 03:43:24;;;;;;;17.52;10.20;;;;;;;;;;5029029;28;20388;-79
2023/02/05 03:46:10;;;;;;;11.55;9.35;;;;;;;;;;5029200;28;20052;-79
2023/02/05 03:48:51;;;;;;;12.02;10.65;;;;;;;;;;5030381;28;20056;-81
2023/02/05 03:51:26;;;;;;;15.77;11.70;;;;;;;;;;5018056;28;20037;-80
2023/02/05 03:54:02;;;;;;;17.55;11.48;;;;;;;;;;5034524;28;20037;-81
2023/02/05 03:56:31;;;;;;;12.57;11.27;;;;;;;;;;5017587;28;20049;-81
2023/02/05 03:58:57;;;;;;;13.07;11.05;;;;;;;;;;5019411;28;20041;-81
2023/02/05 04:01:25;;;;;;;16.27;11.55;;;;;;;;;;5022209;28;20037;-81
2023/02/05 04:03:51;;;;;;;8.05;7.18;;;;;;;;;;5035712;28;20556;-80
2023/02/05 04:06:17;;;;;;;16.00;12.30;;;;;;;;;;5046276;28;20319;-79
2023/02/05 04:08:46;;;;;;;15.63;10.32;;;;;;;;;;5052106;28;20013;-80
2023/02/05 04:11:12;;;;;;;22.42;13.95;;;;;;;;;;5053829;28;20116;-81
2023/02/05 04:13:39;;;;;;;12.40;10.68;;;;;;;;;;5036854;28;20017;-80
2023/02/05 04:16:08;;;;;;;16.95;13.07;;;;;;;;;;5053735;28;20009;-80
2023/02/05 04:18:35;;;;;;;14.35;12.80;;;;;;;;;;5053590;28;20052;-80
2023/02/05 04:21:01;;;;;;;15.93;13.13;;;;;;;;;;5052458;28;20037;-80
2023/02/05 04:23:28;;;;;;;18.20;11.45;;;;;;;;;;5052148;28;20021;-80
2023/02/05 04:25:54;;;;;;;13.15;10.80;;;;;;;;;;5051849;28;20060;-79
2023/02/05 04:28:24;;;;;;;10.68;9.35;;;;;;;;;;5038135;28;20091;-80
2023/02/05 04:30:51;;;;;;;16.73;11.35;;;;;;;;;;5033585;28;20514;-80
2023/02/05 04:33:17;;;;;;;17.00;12.30;;;;;;;;;;5031199;28;20065;-79
2023/02/05 04:35:43;;;;;;;13.65;9.63;;;;;;;;;;5029213;28;20634;-81
2023/02/05 04:38:10;;;;;;;19.58;12.73;;;;;;;;;;5029380;28;20045;-81
2023/02/05 04:40:36;;;;;;;14.68;10.60;;;;;;;;;;5012973;28;20041;-81
2023/02/05 04:43:02;;;;;;;21.23;14.60;;;;;;;;;;5029679;28;20040;-79
2023/02/05 04:45:29;;;;;;;23.83;14.20;;;;;;;;;;5030601;28;20046;-80
2023/02/05 04:47:56;;;;;;;27.35;12.82;;;;;;;;;;5013080;28;20451;-80
2023/02/05 04:50:22;;;;;;;23.55;12.73;;;;;;;;;;5016823;28;20033;-80
2023/02/05 04:52:49;;;;;;;22.10;12.75;;;;;;;;;;5000569;28;20415;-79
2023/02/05 04:55:14;;;;;;;15.60;11.50;;;;;;;;;;5034196;28;20055;-80
2023/02/05 04:57:41;;;;;;;16.00;11.52;;;;;;;;;;5016662;28;20037;-80
2023/02/05 05:00:08;;;;;;;15.60;11.32;;;;;;;;;;5016607;28;20085;-81
2023/02/05 05:02:34;;;;;;;14.57;11.73;;;;;;;;;;5032783;28;20048;-80
2023/02/05 05:05:00;;;;;;;13.98;10.43;;;;;;;;;;5033931;28;20046;-81
2023/02/05 05:07:28;;;;;;;17.67;12.15;;;;;;;;;;5033958;28;20160;-80
2023/02/05 05:09:54;;;;;;;12.73;10.35;;;;;;;;;;5033924;28;20040;-80
2023/02/05 05:12:20;;;;;;;13.05;11.55;;;;;;;;;;5032958;28;20120;-80
2023/02/05 05:14:46;;;;;;;16.67;12.05;;;;;;;;;;5033040;28;20036;-80
2023/02/05 05:17:13;;;;;;;16.58;12.43;;;;;;;;;;5031739;28;20037;-80
2023/02/05 05:19:39;;;;;;;17.92;13.50;;;;;;;;;;5032663;28;20045;-80
2023/02/05 05:22:05;;;;;;;18.58;14.15;;;;;;;;;;5033250;28;20057;-81
2023/02/05 05:24:31;;;;;;;17.75;13.15;;;;;;;;;;5032916;28;20054;-82
2023/02/05 05:26:58;;;;;;;25.65;18.10;;;;;;;;;;5032716;28;20060;-81
2023/02/05 05:29:24;;;;;;;15.15;11.77;;;;;;;;;;5031946;28;20077;-81
2023/02/05 05:31:53;;;;;;;11.57;9.60;;;;;;;;;;5032593;28;20064;-80
2023/02/05 05:34:19;;;;;;;21.10;15.38;;;;;;;;;;5032986;28;20044;-82
2023/02/05 05:36:46;;;;;;;16.27;12.57;;;;;;;;;;5016974;28;20190;-81
2023/02/05 05:44:42;;;;;;;14.63;12.45;;;;;;;;;;5049495;28;20041;-82
2023/02/05 05:47:08;;;;;;;17.98;12.85;;;;;;;;;;5047958;28;20025;-81
2023/02/05 05:49:34;;;;;;;16.95;13.27;;;;;;;;;;5038601;28;20037;-81
2023/02/05 05:52:00;;;;;;;14.38;11.35;;;;;;;;;;5056861;28;20052;-81
2023/02/05 05:54:26;;;;;;;9.77;8.82;;;;;;;;;;5058061;28;20033;-81
2023/02/05 05:56:52;;;;;;;17.75;12.60;;;;;;;;;;5061759;28;20033;-80
2023/02/05 05:59:18;;;;;;;20.55;12.27;;;;;;;;;;5054251;28;20033;-82
2023/02/05 06:01:45;;;;;;;14.93;11.27;;;;;;;;;;5039089;28;20017;-82
2023/02/05 06:04:11;;;;;;;16.77;13.40;;;;;;;;;;5056717;28;20075;-81
2023/02/05 06:06:37;;;;;;;15.02;11.52;;;;;;;;;;5056618;28;20036;-81
2023/02/05 06:09:03;;;;;;;15.48;10.85;;;;;;;;;;5058819;28;20037;-82
2023/02/05 06:11:29;;;;;;;13.52;10.13;;;;;;;;;;5017544;28;20036;-81
2023/02/05 06:13:55;;;;;;;13.27;11.25;;;;;;;;;;5022577;28;20037;-80
2023/02/05 06:16:21;;;;;;;10.70;8.55;;;;;;;;;;5034773;28;20033;-80
2023/02/05 06:18:47;;;;;;;12.00;9.90;;;;;;;;;;5042430;28;20042;-83
2023/02/05 06:21:13;;;;;;;9.93;8.93;;;;;;;;;;5045188;28;20051;-82
2023/02/05 06:23:39;;;;;;;11.20;10.05;;;;;;;;;;5044915;28;20042;-82
2023/02/05 06:26:05;;;;;;;8.60;7.35;;;;;;;;;;5045769;28;20068;-81
2023/02/05 06:28:31;;;;;;;9.95;8.95;;;;;;;;;;5049184;28;20030;-83
2023/02/05 06:30:57;;;;;;;12.68;9.88;;;;;;;;;;5050880;28;20093;-84
2023/02/05 06:33:23;;;;;;;9.15;8.23;;;;;;;;;;5053066;28;20010;-83
2023/02/05 06:35:49;;;;;;;11.38;9.48;;;;;;;;;;5046677;28;20033;-83
2023/02/05 06:38:15;;;;;;;17.35;9.13;;;;;;;;;;5053051;28;20039;-84
2023/02/05 06:40:41;;;;;;;10.13;9.10;;;;;;;;;;5056491;28;20061;-83
2023/02/05 06:43:07;;;;;;;11.05;9.07;;;;;;;;;;5053276;28;20026;-82
2023/02/05 06:45:33;;;;;;;10.98;9.95;;;;;;;;;;5049788;28;20041;-82
2023/02/05 06:47:59;;;;;;;13.50;11.27;;;;;;;;;;5051187;28;20032;-83
2023/02/05 06:50:25;;;;;;;7.50;6.80;;;;;;;;;;5051363;28;20029;-83
2023/02/05 06:52:51;;;;;;;9.40;8.50;;;;;;;;;;5051540;28;20016;-83
2023/02/05 06:55:17;;;;;;;11.23;8.85;;;;;;;;;;5046911;28;20611;-79
2023/02/05 06:57:43;;;;;;;13.48;8.85;;;;;;;;;;5035835;28;20037;-81
2023/02/05 07:00:10;;;;;;;10.27;9.25;;;;;;;;;;5015276;28;20044;-80
2023/02/05 07:02:36;;;;;;;14.75;13.10;;;;;;;;;;5042018;28;20037;-81
2023/02/05 07:05:02;;;;;;;12.77;8.23;;;;;;;;;;5036284;28;20083;-79
2023/02/05 07:07:28;;;;;;;10.93;8.95;;;;;;;;;;5039658;28;20034;-82
2023/02/05 07:09:54;;;;;;;11.88;10.63;;;;;;;;;;5027751;28;20053;-81
2023/02/05 07:12:20;;;;;;;12.73;8.93;;;;;;;;;;5049965;28;20034;-81
2023/02/05 07:14:46;;;;;;;9.35;8.35;;;;;;;;;;5046732;28;20507;-78
2023/02/05 07:17:12;;;;;;;11.68;9.02;;;;;;;;;;5025659;28;20428;-78
2023/02/05 07:19:38;;;;;;;9.55;8.07;;;;;;;;;;5022100;28;20053;-83
2023/02/05 07:22:04;;;;;;;8.93;7.97;;;;;;;;;;5017475;28;20030;-81
2023/02/05 07:24:30;;;;;;;9.60;8.63;;;;;;;;;;5020886;28;20463;-83
2023/02/05 07:26:56;;;;;;;8.55;7.35;;;;;;;;;;5021141;28;20037;-84
2023/02/05 07:29:22;;;;;;;13.30;9.50;;;;;;;;;;5025903;28;20044;-84
2023/02/05 07:31:48;;;;;;;11.77;9.80;;;;;;;;;;5028186;28;20038;-84
2023/02/05 07:34:14;;;;;;;9.10;8.15;;;;;;;;;;5033580;28;20029;-84
2023/02/05 07:36:40;;;;;;;11.27;9.48;;;;;;;;;;5048247;28;20037;-85
2023/02/05 07:39:06;;;;;;;8.98;8.13;;;;;;;;;;5042839;28;20044;-83
2023/02/05 07:41:32;;;;;;;10.13;9.07;;;;;;;;;;5037752;28;20033;-86
2023/02/05 07:43:58;;;;;;;9.63;8.07;;;;;;;;;;5050081;28;20080;-80
2023/02/05 07:46:24;;;;;;;8.95;8.00;;;;;;;;;;5030281;28;20029;-80
2023/02/05 07:48:50;;;;;;;9.02;8.23;;;;;;;;;;5031807;28;20025;-82
2023/02/05 07:51:18;;;;;;;7.40;6.80;;;;;;;;;;5016867;28;20065;-81
2023/02/05 07:53:44;;;;;;;8.45;7.57;;;;;;;;;;5022994;28;20531;-81
2023/02/05 07:56:10;;;;;;;10.60;9.30;;;;;;;;;;5010106;28;20056;-81
2023/02/05 07:58:36;;;;;;;8.68;7.80;;;;;;;;;;5010785;28;20040;-79
2023/02/05 08:01:02;;;;;;;12.32;9.05;;;;;;;;;;5027646;28;20033;-80
2023/02/05 08:03:29;;;;;;;10.45;9.43;;;;;;;;;;5027721;28;20033;-80
2023/02/05 08:05:55;;;;;;;12.80;9.50;;;;;;;;;;5002671;28;20033;-80
2023/02/05 08:08:21;;;;;;;11.25;9.55;;;;;;;;;;5028173;28;20109;-79
2023/02/05 08:10:47;;;;;;;10.02;8.20;;;;;;;;;;5027750;28;20124;-80
2023/02/05 08:13:13;;;;;;;8.85;7.95;;;;;;;;;;5027282;28;20044;-80
2023/02/05 08:15:39;;;;;;;12.07;8.52;;;;;;;;;;5026564;28;20037;-80
2023/02/05 08:18:05;;;;;;;11.25;7.97;;;;;;;;;;5026338;28;20040;-80
2023/02/05 08:20:31;;;;;;;11.82;10.73;;;;;;;;;;5027463;28;20045;-79
2023/02/05 08:22:57;;;;;;;10.98;9.95;;;;;;;;;;5029165;28;20087;-80
2023/02/05 08:25:23;;;;;;;8.43;7.60;;;;;;;;;;5031382;28;20068;-80
2023/02/05 08:27:49;;;;;;;8.07;7.28;;;;;;;;;;5028544;28;20504;-78
2023/02/05 08:30:15;;;;;;;9.70;8.65;;;;;;;;;;5030540;28;20064;-80
2023/02/05 08:32:42;;;;;;;9.02;8.27;;;;;;;;;;5032845;28;20030;-79
2023/02/05 08:35:07;;;;;;;12.27;11.18;;;;;;;;;;5014517;28;20031;-80
2023/02/05 08:37:33;;;;;;;9.10;7.40;;;;;;;;;;5031395;28;20033;-79
2023/02/05 08:39:59;;;;;;;9.93;8.38;;;;;;;;;;5031864;28;20037;-80
2023/02/05 08:42:25;;;;;;;10.27;8.70;;;;;;;;;;5030459;28;20063;-79
2023/02/05 08:44:51;;;;;;;12.00;9.13;;;;;;;;;;5031220;28;20101;-80
2023/02/05 08:47:18;;;;;;;6.88;6.28;;;;;;;;;;5031862;28;20033;-80
2023/02/05 08:49:44;;;;;;;8.52;7.68;;;;;;;;;;5023637;28;20034;-80
2023/02/05 08:52:10;;;;;;;10.80;8.50;;;;;;;;;;5021324;28;20083;-79
2023/02/05 08:54:36;;;;;;;13.82;9.57;;;;;;;;;;5022256;28;20033;-80
2023/02/05 08:57:02;;;;;;;13.40;9.40;;;;;;;;;;5029515;28;20508;-80
2023/02/05 08:59:27;;;;;;;12.40;8.75;;;;;;;;;;5029914;28;20098;-80
2023/02/05 09:01:54;;;;;;;11.40;9.50;;;;;;;;;;5030119;28;20055;-79
2023/02/05 09:04:20;;;;;;;13.88;9.80;;;;;;;;;;5029598;28;20041;-78
2023/02/05 09:06:46;;;;;;;9.95;8.30;;;;;;;;;;5030688;28;20037;-79
2023/02/05 09:09:12;;;;;;;11.18;7.85;;;;;;;;;;5030818;28;20123;-79
2023/02/05 09:11:38;;;;;;;9.23;5.90;;;;;;;;;;5036409;28;20041;-79
2023/02/05 09:14:04;;;;;;;8.18;7.03;;;;;;;;;;5032447;28;20384;-79
2023/02/05 09:16:30;;;;;;;9.38;8.07;;;;;;;;;;5031658;28;20044;-78
2023/02/05 09:18:56;;;;;;;10.95;8.13;;;;;;;;;;5037657;28;20050;-81
2023/02/05 09:21:23;;;;;;;8.15;7.35;;;;;;;;;;5033570;28;20034;-81
2023/02/05 09:23:49;;;;;;;7.88;7.07;;;;;;;;;;5014081;28;20514;-80
2023/02/05 09:26:15;;;;;;;8.57;7.72;;;;;;;;;;5013356;28;20060;-80
2023/02/05 09:28:41;;;;;;;10.23;9.23;;;;;;;;;;5029846;28;20098;-82
2023/02/05 09:31:08;;;;;;;13.35;10.55;;;;;;;;;;5034328;28;20041;-83
2023/02/05 09:33:34;;;;;;;11.57;7.78;;;;;;;;;;5031065;28;20111;-84
2023/02/05 09:36:06;;;;;;;18.30;8.55;;;;;;;;;;5027987;28;20560;-83
2023/02/05 09:38:32;;;;;;;11.38;8.95;;;;;;;;;;5014653;28;20041;-81
2023/02/05 09:41:06;;;;;;;12.60;11.35;;;;;;;;;;5015858;28;20062;-81
2023/02/05 09:43:32;;;;;;;10.27;9.32;;;;;;;;;;5012277;28;20120;-81
2023/02/05 09:46:03;;;;;;;10.15;9.13;;;;;;;;;;5014613;28;20116;-80
2023/02/05 09:48:29;;;;;;;9.73;8.73;;;;;;;;;;5014201;28;20044;-82
2023/02/05 09:50:55;;;;;;;10.27;8.75;;;;;;;;;;5018671;28;20041;-82
2023/02/05 09:53:21;;;;;;;10.43;9.32;;;;;;;;;;5014165;28;20065;-80
2023/02/05 09:55:47;;;;;;;7.68;6.90;;;;;;;;;;5014232;28;20092;-81
2023/02/05 09:58:17;;;;;;;9.60;8.27;;;;;;;;;;5011421;28;20033;-81
2023/02/05 10:00:46;;;;;;;9.18;8.15;;;;;;;;;;5012326;28;20038;-80
2023/02/05 10:03:12;;;;;;;20.98;8.48;;;;;;;;;;5011835;28;20164;-80
2023/02/05 10:06:01;;;;;;;9.05;8.02;;;;;;;;;;5025787;28;20514;-79
2023/02/05 10:08:33;;;;;;;8.75;7.95;;;;;;;;;;5024761;28;20045;-82
2023/02/05 10:10:59;;;;;;;11.70;9.13;;;;;;;;;;5016236;28;20041;-82
2023/02/05 10:13:27;;;;;;;6.68;5.70;;;;;;;;;;4994636;28;20429;-82
2023/02/05 10:16:01;;;;;;;12.40;8.27;;;;;;;;;;5017236;28;20124;-79
2023/02/05 10:18:45;;;;;;;10.43;8.68;;;;;;;;;;5012264;28;20493;-81
2023/02/05 10:21:17;;;;;;;13.15;9.95;;;;;;;;;;5014100;28;20092;-84
2023/02/05 10:23:49;;;;;;;7.93;7.18;;;;;;;;;;5030432;28;20090;-74
2023/02/05 10:26:17;;;;;;;10.82;8.15;;;;;;;;;;5032219;28;20085;-82
2023/02/05 10:28:49;;;;;;;10.60;7.97;;;;;;;;;;5039999;28;20056;-81
2023/02/05 10:31:29;;;;;;;12.85;8.68;;;;;;;;;;5044966;28;20463;-82
2023/02/05 10:34:01;;;;;;;9.98;8.25;;;;;;;;;;5030331;28;20033;-78
2023/02/05 10:36:28;;;;;;;9.55;8.07;;;;;;;;;;5034155;28;20121;-80
2023/02/05 10:38:54;;;;;;;13.45;9.95;;;;;;;;;;5020449;28;20041;-80
2023/02/05 10:41:23;;;;;;;9.20;8.23;;;;;;;;;;5013426;28;20033;-79
2023/02/05 10:43:52;;;;;;;9.77;8.90;;;;;;;;;;5030900;28;20029;-79
2023/02/05 10:46:18;;;;;;;10.15;9.15;;;;;;;;;;5033032;28;20034;-82
2023/02/05 10:48:44;;;;;;;9.77;8.10;;;;;;;;;;5035691;28;20037;-82
2023/02/05 10:51:12;;;;;;;9.40;8.50;;;;;;;;;;5036004;28;20040;-78
2023/02/05 10:53:38;;;;;;;6.05;5.45;;;;;;;;;;5029634;28;20095;-77
2023/02/05 10:56:04;;;;;;;11.48;9.68;;;;;;;;;;5030189;28;20504;-77
2023/02/05 10:58:38;;;;;;;13.68;10.43;;;;;;;;;;5028746;28;20033;-78
2023/02/05 11:01:04;;;;;;;10.98;9.88;;;;;;;;;;5009710;28;20049;-78
2023/02/05 11:03:30;;;;;;;14.88;9.40;;;;;;;;;;5009781;28;20567;-77
2023/02/05 11:05:57;;;;;;;12.82;8.65;;;;;;;;;;5009674;28;20049;-78
2023/02/05 11:08:42;;;;;;;13.98;9.25;;;;;;;;;;5015130;28;20041;-78
2023/02/05 11:11:24;;;;;;;13.88;8.45;;;;;;;;;;5031456;28;20044;-77
2023/02/05 11:13:52;;;;;;;11.20;8.18;;;;;;;;;;5038718;28;20025;-76
2023/02/05 11:16:18;;;;;;;9.02;7.88;;;;;;;;;;5047647;28;20552;-78
2023/02/05 11:18:46;;;;;;;9.02;7.60;;;;;;;;;;5048028;28;20033;-78
2023/02/05 11:21:12;;;;;;;6.28;5.47;;;;;;;;;;5043101;28;20029;-77
2023/02/05 11:23:41;;;;;;;7.45;6.80;;;;;;;;;;5026469;28;20029;-78
2023/02/05 11:26:18;;;;;;;7.75;5.78;;;;;;;;;;5012822;28;20065;-79
2023/02/05 11:28:45;;;;;;;6.47;5.93;;;;;;;;;;5007582;28;20040;-78
2023/02/05 11:31:18;;;;;;;5.88;5.38;;;;;;;;;;5009915;28;20129;-79
2023/02/05 11:33:44;;;;;;;6.25;5.65;;;;;;;;;;5008366;28;20038;-79
2023/02/05 11:36:22;;;;;;;6.25;5.75;;;;;;;;;;5010438;28;20400;-78
2023/02/05 11:38:52;;;;;;;6.38;5.88;;;;;;;;;;5009324;28;20061;-80
2023/02/05 11:41:25;;;;;;;8.35;5.97;;;;;;;;;;5010896;28;20073;-79
2023/02/05 11:43:51;;;;;;;5.88;4.82;;;;;;;;;;5027697;28;20025;-79
2023/02/05 11:46:19;;;;;;;6.22;5.55;;;;;;;;;;5029484;28;20499;-79
2023/02/05 11:48:45;;;;;;;10.38;5.55;;;;;;;;;;5027704;28;20045;-81
2023/02/05 11:51:13;;;;;;;4.28;3.95;;;;;;;;;;5029131;28;20033;-78
2023/02/05 11:53:49;;;;;;;29.67;5.60;;;;;;;;;;5029366;28;20436;-81
2023/02/05 11:56:18;;;;;;;4.80;4.20;;;;;;;;;;5029267;28;20455;-83
2023/02/05 11:58:45;;;;;;;8.15;4.50;;;;;;;;;;5026773;28;20033;-82
2023/02/05 12:01:23;;;;;;;8.25;6.97;;;;;;;;;;5028975;28;20033;-80
2023/02/05 12:03:58;;;;;;;7.25;6.05;;;;;;;;;;5030768;28;20036;-82
2023/02/05 12:06:27;;;;;;;7.68;6.93;;;;;;;;;;5031883;28;20098;-81
2023/02/05 12:08:56;;;;;;;5.57;5.15;;;;;;;;;;5028840;28;20080;-81
2023/02/05 12:14:25;;;;;;;6.25;5.82;;;;;;;;;;5029159;28;20033;-80
2023/02/05 12:16:54;;;;;;;6.53;5.88;;;;;;;;;;5009355;28;20141;-80
2023/02/05 12:19:24;;;;;;;8.98;7.00;;;;;;;;;;5027681;28;20090;-81
2023/02/05 12:22:01;;;;;;;5.78;5.28;;;;;;;;;;5027888;28;20120;-80
2023/02/05 12:24:27;;;;;;;8.50;7.30;;;;;;;;;;5011762;28;20029;-80
2023/02/05 12:26:59;;;;;;;8.63;7.22;;;;;;;;;;5028842;28;20041;-80
2023/02/05 12:29:26;;;;;;;16.98;6.25;;;;;;;;;;5027493;28;20128;-80
2023/02/05 12:31:58;;;;;;;6.57;4.53;;;;;;;;;;5023503;28;20039;-80
2023/02/05 12:34:26;;;;;;;;;;;;;;;;;;5028410;28;20111;-79
2023/02/05 12:37:00;;;;;;;5.40;4.15;;;;;;;;;;5026121;28;20051;-79
2023/02/05 12:39:29;;;;;;;6.10;5.50;;;;;;;;;;5027122;28;20037;-79
2023/02/05 12:42:00;;;;;;;4.82;4.35;;;;;;;;;;5028268;28;20032;-79
2023/02/05 12:44:32;;;;;;;7.05;6.40;;;;;;;;;;5028141;28;20416;-78
2023/02/05 12:47:02;;;;;;;6.68;6.05;;;;;;;;;;5028424;28;20037;-81
2023/02/05 12:49:46;;;;;;;6.30;5.70;;;;;;;;;;5029041;28;20044;-80
2023/02/05 12:52:12;;;;;;;6.05;5.45;;;;;;;;;;5027040;28;20037;-78
2023/02/05 12:54:47;;;;;;;5.18;4.68;;;;;;;;;;5026459;28;20515;-80
2023/02/05 12:57:14;;;;;;;7.25;6.45;;;;;;;;;;5039841;28;20091;-79
2023/02/05 12:59:41;;;;;;;6.40;4.47;;;;;;;;;;5048454;28;20503;-80
2023/02/05 13:02:14;;;;;;;8.00;5.15;;;;;;;;;;5048188;28;20063;-80
2023/02/05 13:04:42;;;;;;;6.07;5.50;;;;;;;;;;5029573;28;20037;-81
2023/02/05 13:07:10;;;;;;;4.72;4.32;;;;;;;;;;5041216;28;20033;-82
2023/02/05 13:09:56;;;;;;;5.75;5.25;;;;;;;;;;5049037;28;20093;-83
2023/02/05 13:12:22;;;;;;;6.43;5.93;;;;;;;;;;5053434;28;20034;-83
2023/02/05 13:15:07;;;;;;;6.10;5.60;;;;;;;;;;5047026;28;20140;-81
2023/02/05 13:17:34;;;;;;;6.55;5.85;;;;;;;;;;5041492;28;20064;-78
2023/02/05 13:20:02;;;;;;;7.78;7.05;;;;;;;;;;5015222;28;20069;-77
2023/02/05 13:30:49;;;;;;;7.25;6.55;;;;;;;;;;4996110;28;19913;-76
2023/02/05 13:33:15;;;;;;;6.15;5.60;;;;;;;;;;5011082;28;20030;-76
2023/02/05 13:35:53;;;;;;;6.28;5.68;;;;;;;;;;5013173;28;20060;-76
2023/02/05 13:38:44;;;;;;;5.18;4.75;;;;;;;;;;5025217;28;20407;-80
2023/02/05 13:41:10;;;;;;;;;;;;;;;;;;5021312;28;20160;-79
2023/02/05 13:43:36;;;;;;;4.85;4.50;;;;;;;;;;5020532;28;19952;-77
2023/02/05 13:46:28;;;;;;;6.13;4.82;;;;;;;;;;5034215;28;20147;-82
2023/02/05 13:49:27;;;;;;;6.70;6.20;;;;;;;;;;5039213;28;20041;-77
2023/02/05 13:52:08;;;;;;;5.93;5.35;;;;;;;;;;4983662;28;20045;-77
2023/02/05 13:54:49;;;;;;;6.03;5.53;;;;;;;;;;5041520;28;20029;-79
2023/02/05 13:57:35;;;;;;;5.97;5.45;;;;;;;;;;5035378;28;20025;-82
2023/02/05 14:00:01;;;;;;;7.47;6.78;;;;;;;;;;5027511;28;20033;-79
2023/02/05 14:02:41;;;;;;;11.23;6.45;;;;;;;;;;5030632;28;20124;-81
2023/02/05 14:05:07;;;;;;;7.88;5.97;;;;;;;;;;5012159;28;20076;-79
2023/02/05 14:07:34;;;;;;;6.32;5.40;;;;;;;;;;5012156;28;20053;-79
2023/02/05 14:10:01;;;;;;;5.47;5.05;;;;;;;;;;5011685;28;20029;-80
2023/02/05 14:12:28;;;;;;;5.85;5.35;;;;;;;;;;5029197;28;20033;-79
2023/02/05 14:15:13;;;;;;;5.93;5.43;;;;;;;;;;5031175;28;20030;-80
2023/02/05 14:17:39;;;;;;;10.93;7.80;;;;;;;;;;5011767;28;20064;-80
2023/02/05 14:20:25;;;;;;;6.38;5.85;;;;;;;;;;5028904;28;20038;-79
2023/02/05 14:22:54;;;;;;;6.70;5.70;;;;;;;;;;5021268;28;20095;-75
2023/02/05 14:25:40;;;;;;;5.15;4.70;;;;;;;;;;5026949;28;20049;-80
2023/02/05 14:28:15;;;;;;;6.22;5.68;;;;;;;;;;5030976;28;20060;-79
2023/02/05 14:30:47;;;;;;;5.30;4.63;;;;;;;;;;5012976;28;20052;-80
2023/02/05 14:33:25;;;;;;;7.82;5.60;;;;;;;;;;5026554;28;20590;-82
2023/02/05 14:36:21;;;;;;;6.22;5.72;;;;;;;;;;5012468;28;20506;-81
2023/02/05 14:38:51;;;;;;;5.60;5.00;;;;;;;;;;5025640;28;20033;-81
2023/02/05 14:41:24;;;;;;;19.48;8.30;;;;;;;;;;4994747;28;20042;-80
2023/02/05 14:43:55;;;;;;;7.40;6.72;;;;;;;;;;5027814;28;20029;-78
2023/02/05 14:46:30;;;;;;;7.10;6.22;;;;;;;;;;5012483;28;20041;-80
2023/02/05 14:48:58;;;;;;;7.80;6.72;;;;;;;;;;5024792;28;20029;-81
2023/02/05 14:51:37;;;;;;;9.20;7.00;;;;;;;;;;5022889;28;20509;-81
2023/02/05 14:54:06;;;;;;;6.20;5.45;;;;;;;;;;5008870;28;20525;-80
2023/02/05 14:56:45;;;;;;;11.45;7.25;;;;;;;;;;5010423;28;20108;-80